createdAt,value
2018-05-08T00:00:14.457Z,17.34
2018-05-08T00:02:41.866Z,17.24
2018-05-08T00:05:09.303Z,17.25
2018-05-08T00:07:36.693Z,17.14
2018-05-08T00:10:04.095Z,17.12
2018-05-08T00:12:31.521Z,16.97
2018-05-08T00:14:58.965Z,16.90
2018-05-08T00:17:26.376Z,16.84
2018-05-08T00:19:53.873Z,16.89
2018-05-08T00:22:21.284Z,16.85
2018-05-08T00:24:48.756Z,16.71
2018-05-08T00:27:16.179Z,16.67
2018-05-08T00:29:43.567Z,16.63
2018-05-08T00:32:11.015Z,16.50
2018-05-08T00:34:38.462Z,16.55
2018-05-08T00:37:05.841Z,16.52
2018-05-08T00:39:33.240Z,16.58
2018-05-08T00:42:00.652Z,16.59
2018-05-08T00:44:28.045Z,16.46
2018-05-08T00:46:55.526Z,16.50
2018-05-08T00:49:22.921Z,16.36
2018-05-08T00:51:50.325Z,16.24
2018-05-08T00:54:18.286Z,16.23
2018-05-08T00:56:45.672Z,16.25
2018-05-08T00:59:13.117Z,16.21
2018-05-08T01:01:40.573Z,16.27
2018-05-08T01:04:07.957Z,16.24
2018-05-08T01:06:35.355Z,16.17
2018-05-08T01:09:02.798Z,16.15
2018-05-08T01:11:30.301Z,16.14
2018-05-08T01:13:57.713Z,16.01
2018-05-08T01:16:25.117Z,15.98
2018-05-08T01:18:52.524Z,15.99
2018-05-08T01:21:19.929Z,15.91
2018-05-08T01:23:47.317Z,15.86
2018-05-08T01:26:14.801Z,15.83
2018-05-08T01:28:42.254Z,15.77
2018-05-08T01:31:09.637Z,15.76
2018-05-08T01:33:37.052Z,15.83
2018-05-08T01:36:04.513Z,15.97
2018-05-08T01:38:31.905Z,15.82
2018-05-08T01:40:59.329Z,15.83
2018-05-08T01:43:26.750Z,15.67
2018-05-08T01:45:54.157Z,15.55
2018-05-08T01:48:21.562Z,15.36
2018-05-08T01:50:49.069Z,15.29
2018-05-08T01:53:16.472Z,15.29
2018-05-08T01:55:43.869Z,15.38
2018-05-08T01:58:11.338Z,15.48
2018-05-08T02:00:38.856Z,15.48
2018-05-08T02:03:06.334Z,15.55
2018-05-08T02:05:33.792Z,15.36
2018-05-08T02:08:01.185Z,15.28
2018-05-08T02:10:28.581Z,15.17
2018-05-08T02:12:56.069Z,15.18
2018-05-08T02:15:23.529Z,14.92
2018-05-08T02:17:50.995Z,15.01
2018-05-08T02:20:18.455Z,15.01
2018-05-08T02:22:48.209Z,15.11
2018-05-08T02:25:15.661Z,15.12
2018-05-08T02:27:43.062Z,15.11
2018-05-08T02:30:10.466Z,14.86
2018-05-08T02:32:37.866Z,14.91
2018-05-08T02:35:05.256Z,14.83
2018-05-08T02:37:32.654Z,14.70
2018-05-08T02:40:00.897Z,14.61
2018-05-08T02:42:28.357Z,14.67
2018-05-08T02:44:55.757Z,14.74
2018-05-08T02:47:23.166Z,14.67
2018-05-08T02:49:50.648Z,14.65
2018-05-08T02:52:18.061Z,14.71
2018-05-08T02:54:45.565Z,14.62
2018-05-08T02:57:13.002Z,14.59
2018-05-08T02:59:40.393Z,14.59
2018-05-08T03:02:07.817Z,14.57
2018-05-08T03:04:36.170Z,14.58
2018-05-08T03:07:03.598Z,14.58
2018-05-08T03:09:31.070Z,14.73
2018-05-08T03:11:58.522Z,14.65
2018-05-08T03:14:25.923Z,14.51
2018-05-08T03:16:53.422Z,14.49
2018-05-08T03:19:20.841Z,14.40
2018-05-08T03:21:48.250Z,14.36
2018-05-08T03:24:15.637Z,14.24
2018-05-08T03:26:43.024Z,14.33
2018-05-08T03:29:10.506Z,14.19
2018-05-08T03:31:37.889Z,14.12
2018-05-08T03:34:05.301Z,13.92
2018-05-08T03:36:32.786Z,13.94
2018-05-08T03:41:38.351Z,13.66
2018-05-08T03:44:05.749Z,13.64
2018-05-08T03:46:33.154Z,13.63
2018-05-08T03:49:00.610Z,13.67
2018-05-08T03:51:28.003Z,13.64
2018-05-08T03:53:55.431Z,13.74
2018-05-08T03:56:22.832Z,13.68
2018-05-08T03:58:50.222Z,13.67
2018-05-08T04:01:29.650Z,13.78
2018-05-08T04:04:08.853Z,13.70
2018-05-08T04:07:01.833Z,13.61
2018-05-08T04:09:29.242Z,13.57
2018-05-08T04:11:56.653Z,13.61
2018-05-08T04:14:26.968Z,13.69
2018-05-08T04:16:54.415Z,13.66
2018-05-08T04:19:21.801Z,13.67
2018-05-08T04:21:49.190Z,13.55
2018-05-08T04:24:16.589Z,13.66
2018-05-08T04:26:43.984Z,13.72
2018-05-08T04:29:11.473Z,13.69
2018-05-08T04:31:38.937Z,13.59
2018-05-08T04:34:06.328Z,13.63
2018-05-08T04:36:33.797Z,13.69
2018-05-08T04:39:01.117Z,13.74
2018-05-08T04:41:28.497Z,13.87
2018-05-08T04:43:55.911Z,14.01
2018-05-08T04:46:23.285Z,14.17
2018-05-08T04:48:50.739Z,14.17
2018-05-08T04:51:18.127Z,14.26
2018-05-08T04:53:45.662Z,14.39
2018-05-08T04:56:13.037Z,14.50
2018-05-08T04:58:40.425Z,14.60
2018-05-08T05:01:07.922Z,14.69
2018-05-08T05:03:35.317Z,14.81
2018-05-08T05:06:02.710Z,14.92
2018-05-08T05:08:30.110Z,15.08
2018-05-08T05:10:57.575Z,15.29
2018-05-08T05:13:24.894Z,15.73
2018-05-08T05:15:52.277Z,17.25
2018-05-08T05:18:19.709Z,19.42
2018-05-08T05:20:47.167Z,21.46
2018-05-08T05:23:14.568Z,23.17
2018-05-08T05:25:41.961Z,24.42
2018-05-08T05:28:09.430Z,25.57
2018-05-08T05:30:37.005Z,26.75
2018-05-08T05:33:04.388Z,27.98
2018-05-08T05:35:31.788Z,29.28
2018-05-08T05:37:59.209Z,30.64
2018-05-08T05:40:26.604Z,31.57
2018-05-08T05:42:54.002Z,32.07
2018-05-08T05:45:21.405Z,32.78
2018-05-08T05:47:48.798Z,33.27
2018-05-08T05:50:16.197Z,34.34
2018-05-08T05:52:43.585Z,34.66
2018-05-08T05:55:11.057Z,35.48
2018-05-08T05:57:38.517Z,35.05
2018-05-08T06:00:06.024Z,34.57
2018-05-08T06:02:33.356Z,33.92
2018-05-08T06:05:00.751Z,34.43
2018-05-08T06:07:28.147Z,34.22
2018-05-08T06:09:55.542Z,33.14
2018-05-08T06:12:23.037Z,31.87
2018-05-08T06:14:50.441Z,31.71
2018-05-08T06:17:17.863Z,31.36
2018-05-08T06:19:45.252Z,30.19
2018-05-08T06:22:12.640Z,29.80
2018-05-08T06:24:40.117Z,30.80
2018-05-08T06:27:07.500Z,30.55
2018-05-08T06:29:34.904Z,30.77
2018-05-08T06:32:02.404Z,30.15
2018-05-08T06:34:29.865Z,30.22
2018-05-08T06:36:57.327Z,30.18
2018-05-08T06:39:24.771Z,30.25
2018-05-08T06:41:52.131Z,29.71
2018-05-08T06:44:19.652Z,29.38
2018-05-08T06:46:47.031Z,29.22
2018-05-08T06:49:14.394Z,29.65
2018-05-08T06:51:41.777Z,29.50
2018-05-08T06:54:09.174Z,30.29
2018-05-08T06:56:36.574Z,31.19
2018-05-08T06:59:03.960Z,31.18
2018-05-08T07:01:31.357Z,31.00
2018-05-08T07:03:58.758Z,30.76
2018-05-08T07:06:26.173Z,30.70
2018-05-08T07:08:53.558Z,31.19
2018-05-08T07:11:20.995Z,30.63
2018-05-08T07:13:48.460Z,31.24
2018-05-08T07:16:15.983Z,31.96
2018-05-08T07:18:43.366Z,32.17
2018-05-08T07:21:10.753Z,32.14
2018-05-08T07:23:38.150Z,31.45
2018-05-08T07:26:05.545Z,31.72
2018-05-08T07:28:32.933Z,31.93
2018-05-08T07:31:00.359Z,31.76
2018-05-08T07:33:27.741Z,31.39
2018-05-08T07:35:55.141Z,31.03
2018-05-08T07:38:22.639Z,30.67
2018-05-08T07:40:49.941Z,30.79
2018-05-08T07:43:17.421Z,30.08
2018-05-08T07:45:44.908Z,30.08
2018-05-08T07:48:12.342Z,30.34
2018-05-08T07:50:39.795Z,29.99
2018-05-08T07:53:07.134Z,30.13
2018-05-08T07:55:34.569Z,29.53
2018-05-08T07:58:01.972Z,29.32
2018-05-08T08:00:29.596Z,29.41
2018-05-08T08:02:56.987Z,29.86
2018-05-08T08:05:24.377Z,29.50
2018-05-08T08:07:51.773Z,28.73
2018-05-08T08:10:19.177Z,28.90
2018-05-08T08:12:46.565Z,28.05
2018-05-08T08:15:13.962Z,28.06
2018-05-08T08:17:41.439Z,28.32
2018-05-08T08:20:08.881Z,27.65
2018-05-08T08:22:36.339Z,27.44
2018-05-08T08:25:03.741Z,27.23
2018-05-08T08:27:31.135Z,27.11
2018-05-08T08:29:58.536Z,27.67
2018-05-08T08:32:25.956Z,27.53
2018-05-08T08:34:53.414Z,27.03
2018-05-08T08:37:21.457Z,26.78
2018-05-08T08:39:48.853Z,26.62
2018-05-08T08:42:16.297Z,26.15
2018-05-08T08:44:43.699Z,25.80
2018-05-08T08:47:11.101Z,25.62
2018-05-08T08:49:38.517Z,25.53
2018-05-08T08:52:05.904Z,25.50
2018-05-08T08:54:33.307Z,25.52
2018-05-08T08:57:00.705Z,25.60
2018-05-08T08:59:28.102Z,26.05
2018-05-08T09:01:55.505Z,26.29
2018-05-08T09:04:22.897Z,26.58
2018-05-08T09:06:50.294Z,26.07
2018-05-08T09:09:17.681Z,25.92
2018-05-08T09:11:45.077Z,25.93
2018-05-08T09:14:12.470Z,25.73
2018-05-08T09:16:39.881Z,25.45
2018-05-08T09:19:07.361Z,25.41
2018-05-08T09:21:34.761Z,25.92
2018-05-08T09:24:02.173Z,26.29
2018-05-08T09:26:29.642Z,26.59
2018-05-08T09:28:57.078Z,26.49
2018-05-08T09:31:24.472Z,26.74
2018-05-08T09:33:51.908Z,26.56
2018-05-08T09:36:19.338Z,26.45
2018-05-08T09:38:46.797Z,26.45
2018-05-08T09:41:14.217Z,26.23
2018-05-08T09:43:41.725Z,26.16
2018-05-08T09:46:09.126Z,26.30
2018-05-08T09:48:36.517Z,26.04
2018-05-08T09:51:03.926Z,25.77
2018-05-08T09:53:31.312Z,25.89
2018-05-08T09:55:58.720Z,26.00
2018-05-08T09:58:26.149Z,26.21
2018-05-08T10:00:53.607Z,26.19
2018-05-08T10:03:20.949Z,26.37
2018-05-08T10:05:48.358Z,26.49
2018-05-08T10:08:15.773Z,26.28
2018-05-08T10:10:43.174Z,26.39
2018-05-08T10:13:10.560Z,26.31
2018-05-08T10:15:38.041Z,26.30
2018-05-08T10:18:05.459Z,26.27
2018-05-08T10:20:32.886Z,26.32
2018-05-08T10:23:00.277Z,26.40
2018-05-08T10:25:27.689Z,26.34
2018-05-08T10:27:55.182Z,26.31
2018-05-08T10:30:22.585Z,26.50
2018-05-08T10:32:50.047Z,26.54
2018-05-08T10:35:17.513Z,26.54
2018-05-08T10:37:44.915Z,26.28
2018-05-08T10:40:12.316Z,26.41
2018-05-08T10:42:39.711Z,26.52
2018-05-08T10:45:07.130Z,26.55
2018-05-08T10:47:34.522Z,26.58
2018-05-08T10:50:01.906Z,26.54
2018-05-08T10:52:29.313Z,26.54
2018-05-08T10:54:56.813Z,26.81
2018-05-08T10:57:24.207Z,26.84
2018-05-08T10:59:51.596Z,26.54
2018-05-08T11:02:19.073Z,26.59
2018-05-08T11:04:46.534Z,26.43
2018-05-08T11:07:13.929Z,26.54
2018-05-08T11:09:41.438Z,26.75
2018-05-08T11:12:08.905Z,26.42
2018-05-08T11:14:36.310Z,26.50
2018-05-08T11:17:03.717Z,26.63
2018-05-08T11:19:31.177Z,26.95
2018-05-08T11:21:58.633Z,26.82
2018-05-08T11:24:26.021Z,26.94
2018-05-08T11:26:53.514Z,26.93
2018-05-08T11:29:20.923Z,26.79
2018-05-08T11:31:48.321Z,26.88
2018-05-08T11:34:15.713Z,26.70
2018-05-08T11:36:43.109Z,26.90
2018-05-08T11:39:10.500Z,27.01
2018-05-08T11:41:37.986Z,26.87
2018-05-08T11:44:05.450Z,27.11
2018-05-08T11:46:32.894Z,27.24
2018-05-08T11:49:00.363Z,27.23
2018-05-08T11:51:27.832Z,27.37
2018-05-08T11:53:55.211Z,27.16
2018-05-08T11:56:22.649Z,27.13
2018-05-08T11:58:50.089Z,27.39
2018-05-08T12:01:17.493Z,27.26
2018-05-08T12:03:44.909Z,27.23
2018-05-08T12:06:12.305Z,27.44
2018-05-08T12:08:39.817Z,27.34
2018-05-08T12:11:07.213Z,27.38
2018-05-08T12:13:34.605Z,27.59
2018-05-08T12:16:01.998Z,27.39
2018-05-08T12:18:29.462Z,27.37
2018-05-08T12:20:56.862Z,27.18
2018-05-08T12:23:24.255Z,27.15
2018-05-08T12:25:51.645Z,27.23
2018-05-08T12:28:19.029Z,27.41
2018-05-08T12:30:46.630Z,27.49
2018-05-08T12:33:13.926Z,27.48
2018-05-08T12:35:41.321Z,27.48
2018-05-08T12:38:08.815Z,27.53
2018-05-08T12:40:36.282Z,27.71
2018-05-08T12:43:03.668Z,27.62
2018-05-08T12:45:31.061Z,27.64
2018-05-08T12:47:58.458Z,27.47
2018-05-08T12:50:25.934Z,27.55
2018-05-08T12:52:53.262Z,27.61
2018-05-08T12:55:20.653Z,27.60
2018-05-08T12:57:48.157Z,27.84
2018-05-08T13:00:15.635Z,27.74
2018-05-08T13:02:43.025Z,27.62
2018-05-08T13:05:10.424Z,27.93
2018-05-08T13:07:37.829Z,28.40
2018-05-08T13:10:05.222Z,28.34
2018-05-08T13:12:32.619Z,28.41
2018-05-08T13:15:00.001Z,28.34
2018-05-08T13:17:27.429Z,28.31
2018-05-08T13:19:54.890Z,27.91
2018-05-08T13:22:22.329Z,27.80
2018-05-08T13:24:49.718Z,27.79
2018-05-08T13:27:17.146Z,27.92
2018-05-08T13:29:44.601Z,27.86
2018-05-08T13:32:12.057Z,27.84
2018-05-08T13:34:39.445Z,27.73
2018-05-08T13:37:06.958Z,27.70
2018-05-08T13:39:34.444Z,27.92
2018-05-08T13:42:01.918Z,27.97
2018-05-08T13:44:29.298Z,27.90
2018-05-08T13:46:56.693Z,27.87
2018-05-08T13:49:24.090Z,27.93
2018-05-08T13:51:51.511Z,28.04
2018-05-08T13:54:18.977Z,28.27
2018-05-08T13:56:46.438Z,28.10
2018-05-08T13:59:13.889Z,27.90
2018-05-08T14:01:41.370Z,27.78
2018-05-08T14:04:08.752Z,27.95
2018-05-08T14:06:36.181Z,28.00
2018-05-08T14:09:03.555Z,27.80
2018-05-08T14:11:30.991Z,27.91
2018-05-08T14:13:58.429Z,28.08
2018-05-08T14:16:25.925Z,28.14
2018-05-08T14:18:53.330Z,28.03
2018-05-08T14:21:20.816Z,28.12
2018-05-08T14:23:48.209Z,28.24
2018-05-08T14:26:15.602Z,28.44
2018-05-08T14:28:43.012Z,28.44
2018-05-08T14:31:10.457Z,28.39
2018-05-08T14:33:37.849Z,28.59
2018-05-08T14:36:05.291Z,28.47
2018-05-08T14:38:32.667Z,28.33
2018-05-08T14:41:00.049Z,28.24
2018-05-08T14:43:27.544Z,28.14
2018-05-08T14:45:54.986Z,28.04
2018-05-08T14:48:22.386Z,27.94
2018-05-08T14:50:49.797Z,27.78
2018-05-08T14:53:17.198Z,27.82
2018-05-08T14:55:44.610Z,27.78
2018-05-08T14:58:12.016Z,28.03
2018-05-08T15:00:39.405Z,28.09
2018-05-08T15:03:06.873Z,28.23
2018-05-08T15:05:34.345Z,27.91
2018-05-08T15:08:01.799Z,27.83
2018-05-08T15:10:29.189Z,27.76
2018-05-08T15:12:56.586Z,27.66
2018-05-08T15:15:23.968Z,27.85
2018-05-08T15:17:51.372Z,28.09
2018-05-08T15:20:18.776Z,28.17
2018-05-08T15:22:46.233Z,28.19
2018-05-08T15:25:13.692Z,28.27
2018-05-08T15:27:41.085Z,27.95
2018-05-08T15:30:08.470Z,28.06
2018-05-08T15:32:35.969Z,28.03
2018-05-08T15:35:03.421Z,28.04
2018-05-08T15:37:30.818Z,27.90
2018-05-08T15:39:58.231Z,27.85
2018-05-08T15:42:25.690Z,27.96
2018-05-08T15:44:53.080Z,28.11
2018-05-08T15:49:43.065Z,28.15
2018-05-08T15:52:10.464Z,28.00
2018-05-08T15:54:37.960Z,27.80
2018-05-08T15:57:05.409Z,27.70
2018-05-08T15:59:32.878Z,27.70
2018-05-08T16:02:00.281Z,27.93
2018-05-08T16:04:27.676Z,27.83
2018-05-08T16:06:55.064Z,27.96
2018-05-08T16:09:22.465Z,28.07
2018-05-08T16:11:49.858Z,27.94
2018-05-08T16:14:17.330Z,27.96
2018-05-08T16:16:44.717Z,27.98
2018-05-08T16:19:12.121Z,27.87
2018-05-08T16:21:39.595Z,27.98
2018-05-08T16:24:07.038Z,27.86
2018-05-08T16:26:34.507Z,27.76
2018-05-08T16:29:01.898Z,27.58
2018-05-08T16:31:29.319Z,27.49
2018-05-08T16:33:56.760Z,27.39
2018-05-08T16:36:24.146Z,27.42
2018-05-08T16:38:51.597Z,27.16
2018-05-08T16:41:18.974Z,27.02
2018-05-08T16:43:46.385Z,27.02
2018-05-08T16:46:13.825Z,27.04
2018-05-08T16:48:41.301Z,27.26
2018-05-08T16:51:08.793Z,27.29
2018-05-08T16:53:36.186Z,27.38
2018-05-08T16:56:03.587Z,27.38
2018-05-08T16:58:31.006Z,27.36
2018-05-08T17:00:58.394Z,27.30
2018-05-08T17:03:25.837Z,27.11
2018-05-08T17:05:53.305Z,27.18
2018-05-08T17:08:20.730Z,27.11
2018-05-08T17:10:48.141Z,27.11
2018-05-08T17:13:15.547Z,26.89
2018-05-08T17:15:43.044Z,26.81
2018-05-08T17:18:10.433Z,26.65
2018-05-08T17:20:37.867Z,26.71
2018-05-08T17:23:05.278Z,26.70
2018-05-08T17:25:32.694Z,26.69
2018-05-08T17:28:00.087Z,26.67
2018-05-08T17:30:27.474Z,26.50
2018-05-08T17:32:54.883Z,26.57
2018-05-08T17:35:22.286Z,26.63
2018-05-08T17:37:49.729Z,26.68
2018-05-08T17:40:17.137Z,26.45
2018-05-08T17:42:44.554Z,26.42
2018-05-08T17:45:12.019Z,26.31
2018-05-08T17:47:39.413Z,26.30
2018-05-08T17:50:06.849Z,26.28
2018-05-08T17:52:34.258Z,26.03
2018-05-08T17:55:01.647Z,26.15
2018-05-08T17:57:29.056Z,26.27
2018-05-08T17:59:56.469Z,26.14
2018-05-08T18:02:23.953Z,26.14
2018-05-08T18:04:51.370Z,25.99
2018-05-08T18:07:18.770Z,25.82
2018-05-08T18:09:46.173Z,25.59
2018-05-08T18:12:13.559Z,25.50
2018-05-08T18:14:41.001Z,25.44
2018-05-08T18:17:08.468Z,25.38
2018-05-08T18:19:35.950Z,25.50
2018-05-08T18:22:03.401Z,25.29
2018-05-08T18:24:30.784Z,25.17
2018-05-08T18:26:58.190Z,25.17
2018-05-08T18:29:25.585Z,25.06
2018-05-08T18:31:52.993Z,25.17
2018-05-08T18:34:20.527Z,25.20
2018-05-08T18:36:47.785Z,25.13
2018-05-08T18:39:15.193Z,25.17
2018-05-08T18:41:42.630Z,25.12
2018-05-08T18:44:10.041Z,24.97
2018-05-08T18:46:37.615Z,25.07
2018-05-08T18:49:05.095Z,24.99
2018-05-08T18:51:32.483Z,24.98
2018-05-08T18:53:59.882Z,24.97
2018-05-08T18:56:27.274Z,24.91
2018-05-08T18:58:54.738Z,24.77
2018-05-08T19:01:22.226Z,24.70
2018-05-08T19:03:49.686Z,24.63
2018-05-08T19:06:17.150Z,24.55
2018-05-08T19:08:44.647Z,24.58
2018-05-08T19:11:17.685Z,24.49
2018-05-08T19:13:45.096Z,24.46
2018-05-08T19:16:12.486Z,24.45
2018-05-08T19:18:45.421Z,24.31
2018-05-08T19:21:12.814Z,24.22
2018-05-08T19:23:45.997Z,24.04
2018-05-08T19:26:13.398Z,24.04
2018-05-08T19:28:46.577Z,23.93
2018-05-08T19:31:13.962Z,23.74
2018-05-08T19:33:41.390Z,23.53
2018-05-08T19:36:14.553Z,23.19
2018-05-08T19:38:41.967Z,23.09
2018-05-08T19:41:09.369Z,22.87
2018-05-08T19:43:36.770Z,22.76
2018-05-08T19:46:04.161Z,22.55
2018-05-08T19:48:31.556Z,22.51
2018-05-08T19:50:58.953Z,22.59
2018-05-08T19:53:26.437Z,22.57
2018-05-08T19:55:53.962Z,22.52
2018-05-08T19:58:21.442Z,22.33
2018-05-08T20:00:48.829Z,22.19
2018-05-08T20:03:16.273Z,21.96
2018-05-08T20:05:43.664Z,21.97
2018-05-08T20:08:11.065Z,21.96
2018-05-08T20:10:38.462Z,21.87
2018-05-08T20:13:05.857Z,21.86
2018-05-08T20:15:33.360Z,21.79
2018-05-08T20:18:00.853Z,21.79
2018-05-08T20:20:28.365Z,21.47
2018-05-08T20:22:55.775Z,21.48
2018-05-08T20:25:23.197Z,21.36
2018-05-08T20:27:50.597Z,21.32
2018-05-08T20:30:18.039Z,21.17
2018-05-08T20:32:45.492Z,21.14
2018-05-08T20:35:12.909Z,21.00
2018-05-08T20:37:40.313Z,21.05
2018-05-08T20:40:07.717Z,21.06
2018-05-08T20:42:35.193Z,21.02
2018-05-08T20:45:02.638Z,20.85
2018-05-08T20:47:30.033Z,20.76
2018-05-08T20:49:57.458Z,20.77
2018-05-08T20:52:24.910Z,20.68
2018-05-08T20:54:52.307Z,20.69
2018-05-08T20:57:19.700Z,20.67
2018-05-08T20:59:47.093Z,20.59
2018-05-08T21:02:14.494Z,20.63
2018-05-08T21:04:41.904Z,20.50
2018-05-08T21:07:09.298Z,20.51
2018-05-08T21:09:36.689Z,20.42
2018-05-08T21:12:04.089Z,20.41
2018-05-08T21:14:31.483Z,20.32
2018-05-08T21:16:58.865Z,20.29
2018-05-08T21:19:26.270Z,20.45
2018-05-08T21:21:53.654Z,20.29
2018-05-08T21:24:22.023Z,20.28
2018-05-08T21:29:29.020Z,20.18
2018-05-08T21:31:56.424Z,20.26
2018-05-08T21:34:23.850Z,20.23
2018-05-08T21:36:51.232Z,20.18
2018-05-08T21:39:18.653Z,20.16
2018-05-08T21:41:46.060Z,20.07
2018-05-08T21:44:13.462Z,20.06
2018-05-08T21:46:40.844Z,19.99
2018-05-08T21:49:08.301Z,19.89
2018-05-08T21:51:35.767Z,19.84
2018-05-08T21:54:03.152Z,19.81
2018-05-08T21:56:30.562Z,19.82
2018-05-08T21:58:57.964Z,19.90
2018-05-08T22:01:25.358Z,19.85
2018-05-08T22:03:52.776Z,19.81
2018-05-08T22:06:20.189Z,19.84
2018-05-08T22:08:47.593Z,19.85
2018-05-08T22:11:14.984Z,19.81
2018-05-08T22:13:42.374Z,19.75
2018-05-08T22:16:09.761Z,19.76
2018-05-08T22:18:37.165Z,19.75
2018-05-08T22:21:04.561Z,19.80
2018-05-08T22:23:31.961Z,19.80
2018-05-08T22:25:59.454Z,19.84
2018-05-08T22:28:26.855Z,19.81
2018-05-08T22:30:54.255Z,19.84
2018-05-08T22:33:21.705Z,19.80
2018-05-08T22:35:49.098Z,19.74
2018-05-08T22:38:16.505Z,19.79
2018-05-08T22:40:43.946Z,19.74
2018-05-08T22:43:11.355Z,19.81
2018-05-08T22:45:38.877Z,19.64
2018-05-08T22:48:06.269Z,19.81
2018-05-08T22:50:33.673Z,19.89
2018-05-08T22:53:01.061Z,19.78
2018-05-08T22:55:28.462Z,19.78
2018-05-08T22:57:55.956Z,19.81
2018-05-08T23:00:23.392Z,19.76
2018-05-08T23:02:50.857Z,19.70
2018-05-08T23:05:18.308Z,19.70
2018-05-08T23:07:45.761Z,19.69
2018-05-08T23:10:13.169Z,19.69
2018-05-08T23:12:40.556Z,19.74
2018-05-08T23:15:07.951Z,19.60
2018-05-08T23:17:35.399Z,19.58
2018-05-08T23:20:02.899Z,19.54
2018-05-08T23:22:30.307Z,19.53
2018-05-08T23:24:57.702Z,19.61
2018-05-08T23:27:25.166Z,19.57
2018-05-08T23:29:52.625Z,19.57
2018-05-08T23:32:20.076Z,19.51
2018-05-08T23:34:47.476Z,19.47
2018-05-08T23:37:14.874Z,19.46
2018-05-08T23:39:42.261Z,19.45
2018-05-08T23:42:09.649Z,19.48
2018-05-08T23:44:37.156Z,19.42
2018-05-08T23:47:04.628Z,19.32
2018-05-08T23:49:32.033Z,19.37
2018-05-08T23:51:59.429Z,19.39
2018-05-08T23:54:26.821Z,19.36
2018-05-08T23:56:54.207Z,19.24
2018-05-08T23:59:21.616Z,19.23
